Time;durP1;ratioP1;P1;durP2;ratioP2;P2;SDS_P1;SDS_P2;PMS_P1;PMS_P2;Temp;Humidity;BMP_temperature;BMP_pressure;BME280_temperature;BME280_humidity;BME280_pressure;Samples;Min_cycle;Max_cycle;Signal;HPM_P1;HPM_P2
2021/08/11 00:02:14;;;;;;;;;;;13.90;99.90;;;;;;5032032;28;20302;-78
2021/08/11 00:04:40;;;;;;;;;;;13.90;99.90;;;;;;5031967;28;20321;-78
2021/08/11 00:07:06;;;;;;;;;;;13.90;99.90;;;;;;5031487;28;19909;-78
2021/08/11 00:09:31;;;;;;;;;;;13.90;99.90;;;;;;5031444;28;19964;-78
2021/08/11 00:11:58;;;;;;;;;;;13.90;99.90;;;;;;5013309;28;19909;-78
2021/08/11 00:14:24;;;;;;;;;;;13.80;99.90;;;;;;5031315;28;19967;-78
2021/08/11 00:16:49;;;;;;;;;;;13.80;99.90;;;;;;5031009;28;19913;-78
2021/08/11 00:19:15;;;;;;;;;;;13.80;99.90;;;;;;5031432;28;20435;-78
2021/08/11 00:21:40;;;;;;;;;;;13.80;99.90;;;;;;5030605;28;19924;-78
2021/08/11 00:24:06;;;;;;;;;;;13.80;99.90;;;;;;5031269;28;20007;-77
2021/08/11 00:26:31;;;;;;;;;;;13.80;99.90;;;;;;5030882;28;19909;-77
2021/08/11 00:28:57;;;;;;;;;;;13.70;99.90;;;;;;5013435;28;19913;-77
2021/08/11 00:31:22;;;;;;;;;;;13.70;99.90;;;;;;5031153;28;19917;-78
2021/08/11 00:33:48;;;;;;;;;;;13.70;99.90;;;;;;5031233;28;20003;-77
2021/08/11 00:36:13;;;;;;;;;;;13.70;99.90;;;;;;5013157;28;20366;-78
2021/08/11 00:38:39;;;;;;;;;;;13.70;99.90;;;;;;5013531;28;20115;-77
2021/08/11 00:41:04;;;;;;;;;;;13.70;99.90;;;;;;5031077;28;19909;-77
2021/08/11 00:43:30;;;;;;;;;;;13.60;99.90;;;;;;5013406;28;19913;-78
2021/08/11 00:45:55;;;;;;;;;;;13.60;99.90;;;;;;5031141;28;19931;-77
2021/08/11 00:48:23;;;;;;;;;;;13.60;99.90;;;;;;5031152;28;19963;-78
2021/08/11 00:50:49;;;;;;;;;;;13.60;99.90;;;;;;5013198;28;19913;-77
2021/08/11 00:53:16;;;;;;;;;;;13.60;99.90;;;;;;5030834;28;20016;-77
2021/08/11 00:55:41;;;;;;;;;;;13.50;99.90;;;;;;5033329;28;20367;-78
2021/08/11 00:58:11;;;;;;;;;;;13.50;99.90;;;;;;5016667;28;19909;-78
2021/08/11 01:00:41;;;;;;;;;;;13.50;99.90;;;;;;5034789;28;19966;-78
2021/08/11 01:03:10;;;;;;;;;;;13.50;99.90;;;;;;5035073;28;19916;-77
2021/08/11 01:05:35;;;;;;;;;;;13.50;99.90;;;;;;5017064;28;19967;-78
2021/08/11 01:08:01;;;;;;;;;;;13.40;99.90;;;;;;5034520;28;19979;-77
2021/08/11 01:10:28;;;;;;;;;;;13.40;99.90;;;;;;5034516;28;19920;-78
2021/08/11 01:12:53;;;;;;;;;;;13.40;99.90;;;;;;5016932;28;19909;-77
2021/08/11 01:15:19;;;;;;;;;;;13.30;99.90;;;;;;5016896;28;20278;-78
2021/08/11 01:17:44;;;;;;;;;;;13.30;99.90;;;;;;5016512;28;19924;-78
2021/08/11 01:20:10;;;;;;;;;;;13.30;99.90;;;;;;5034651;28;20425;-78
2021/08/11 01:22:39;;;;;;;;;;;13.20;99.90;;;;;;5016021;28;19909;-77
2021/08/11 01:25:04;;;;;;;;;;;13.20;99.90;;;;;;5034318;28;19979;-77
2021/08/11 01:27:30;;;;;;;;;;;13.20;99.90;;;;;;5034103;28;20382;-77
2021/08/11 01:30:05;;;;;;;;;;;13.10;99.90;;;;;;5016321;28;19960;-77
2021/08/11 01:32:45;;;;;;;;;;;13.10;99.90;;;;;;5034435;28;19913;-78
2021/08/11 01:35:11;;;;;;;;;;;13.00;99.90;;;;;;5034382;28;19909;-77
2021/08/11 01:37:38;;;;;;;;;;;13.00;99.90;;;;;;5033716;28;19913;-78
2021/08/11 01:40:05;;;;;;;;;;;13.00;99.90;;;;;;5034170;28;19909;-77
2021/08/11 01:42:41;;;;;;;;;;;13.00;99.90;;;;;;5016320;28;20251;-78
2021/08/11 01:45:12;;;;;;;;;;;13.10;99.90;;;;;;5034102;28;19913;-77
2021/08/11 01:47:40;;;;;;;;;;;13.00;99.90;;;;;;5015902;28;19909;-77
2021/08/11 01:50:07;;;;;;;;;;;13.00;99.90;;;;;;5032125;28;19924;-77
2021/08/11 01:52:38;;;;;;;;;;;13.00;99.90;;;;;;5019812;28;19960;-77
2021/08/11 01:55:04;;;;;;;;;;;13.00;99.90;;;;;;5023565;28;19909;-77
2021/08/11 01:57:30;;;;;;;;;;;12.90;99.90;;;;;;5033324;28;20325;-77
2021/08/11 01:59:55;;;;;;;;;;;13.00;99.90;;;;;;5033561;28;19910;-77
2021/08/11 02:02:22;;;;;;;;;;;12.90;99.90;;;;;;5033502;28;19916;-77
2021/08/11 02:04:47;;;;;;;;;;;12.90;99.90;;;;;;5015686;28;20301;-77
2021/08/11 02:07:14;;;;;;;;;;;12.90;99.90;;;;;;5033187;28;19909;-77
2021/08/11 02:09:40;;;;;;;;;;;12.90;99.90;;;;;;5033477;28;20217;-77
2021/08/11 02:12:06;;;;;;;;;;;13.00;99.90;;;;;;5033333;28;19917;-77
2021/08/11 02:14:31;;;;;;;;;;;13.00;99.90;;;;;;5015717;28;19910;-77
2021/08/11 02:16:58;;;;;;;;;;;13.00;99.90;;;;;;5032814;28;19909;-77
2021/08/11 02:19:23;;;;;;;;;;;13.00;99.90;;;;;;5033278;28;19918;-77
2021/08/11 02:21:49;;;;;;;;;;;13.00;99.90;;;;;;5033058;28;19917;-77
2021/08/11 02:24:15;;;;;;;;;;;13.10;99.90;;;;;;5032972;28;19953;-77
2021/08/11 02:27:01;;;;;;;;;;;13.10;99.90;;;;;;5032652;28;19909;-77
2021/08/11 02:29:26;;;;;;;;;;;13.10;99.90;;;;;;5031241;28;19913;-77
2021/08/11 02:32:02;;;;;;;;;;;13.10;99.90;;;;;;5032923;28;20028;-77
2021/08/11 02:34:28;;;;;;;;;;;13.10;99.90;;;;;;5033086;28;19909;-77
2021/08/11 02:36:57;;;;;;;;;;;13.10;99.90;;;;;;5032645;28;20409;-77
2021/08/11 02:39:28;;;;;;;;;;;13.10;99.90;;;;;;5033353;28;20528;-77
2021/08/11 02:42:03;;;;;;;;;;;13.10;99.90;;;;;;5032801;28;19963;-77
2021/08/11 02:44:36;;;;;;;;;;;13.10;99.90;;;;;;5032889;28;19909;-77
2021/08/11 02:47:02;;;;;;;;;;;13.00;99.90;;;;;;5031302;28;19909;-77
2021/08/11 02:49:28;;;;;;;;;;;13.00;99.90;;;;;;5032707;28;20012;-77
2021/08/11 02:51:55;;;;;;;;;;;13.00;99.90;;;;;;5029940;28;20389;-77
2021/08/11 02:54:22;;;;;;;;;;;12.90;99.90;;;;;;5032328;28;19916;-77
2021/08/11 02:56:47;;;;;;;;;;;12.90;99.90;;;;;;5014457;28;19952;-77
2021/08/11 02:59:14;;;;;;;;;;;12.90;99.90;;;;;;5032520;28;19917;-77
2021/08/11 03:01:40;;;;;;;;;;;12.80;99.90;;;;;;5014573;28;19996;-77
2021/08/11 03:04:06;;;;;;;;;;;12.70;99.90;;;;;;5032412;28;19909;-77
2021/08/11 03:06:32;;;;;;;;;;;12.70;99.90;;;;;;5031972;28;20314;-77
2021/08/11 03:08:58;;;;;;;;;;;12.70;99.90;;;;;;5032131;28;19917;-77
2021/08/11 03:11:24;;;;;;;;;;;12.70;99.90;;;;;;5032357;28;19921;-77
2021/08/11 03:13:50;;;;;;;;;;;12.70;99.90;;;;;;5032310;28;19909;-77
2021/08/11 03:16:16;;;;;;;;;;;12.60;99.90;;;;;;5014162;28;19909;-77
2021/08/11 03:18:41;;;;;;;;;;;12.60;99.90;;;;;;5031596;28;20393;-77
2021/08/11 03:21:07;;;;;;;;;;;12.60;99.90;;;;;;5032071;28;20281;-77
2021/08/11 03:23:32;;;;;;;;;;;12.60;99.90;;;;;;5031674;28;19956;-77
2021/08/11 03:25:58;;;;;;;;;;;12.50;99.90;;;;;;5013927;28;20378;-77
2021/08/11 03:28:24;;;;;;;;;;;12.60;99.90;;;;;;5014055;28;20016;-77
2021/08/11 03:30:49;;;;;;;;;;;12.60;99.90;;;;;;5031681;28;19947;-77
2021/08/11 03:33:15;;;;;;;;;;;12.60;99.90;;;;;;5032034;28;19916;-77
2021/08/11 03:35:40;;;;;;;;;;;12.50;99.90;;;;;;5031921;28;20327;-77
2021/08/11 03:38:06;;;;;;;;;;;12.50;99.90;;;;;;5031440;28;20290;-77
2021/08/11 03:40:31;;;;;;;;;;;12.50;99.90;;;;;;5031511;28;19983;-77
2021/08/11 03:42:57;;;;;;;;;;;12.50;99.90;;;;;;5031574;28;19909;-77
2021/08/11 03:45:22;;;;;;;;;;;12.50;99.90;;;;;;5031411;28;19909;-77
2021/08/11 03:47:48;;;;;;;;;;;12.50;99.90;;;;;;5013913;28;20046;-77
2021/08/11 03:50:14;;;;;;;;;;;12.50;99.90;;;;;;5031315;28;19980;-77
2021/08/11 03:52:40;;;;;;;;;;;12.40;99.90;;;;;;5031347;28;19917;-77
2021/08/11 03:55:06;;;;;;;;;;;12.40;99.90;;;;;;5013458;28;19947;-77
2021/08/11 03:57:32;;;;;;;;;;;12.40;99.90;;;;;;5013437;28;20278;-77
2021/08/11 03:59:57;;;;;;;;;;;12.40;99.90;;;;;;5031336;28;19915;-77
2021/08/11 04:02:23;;;;;;;;;;;12.40;99.90;;;;;;5031369;28;19909;-77
2021/08/11 04:04:48;;;;;;;;;;;12.40;99.90;;;;;;5031819;28;19936;-77
2021/08/11 04:07:14;;;;;;;;;;;12.50;99.90;;;;;;5030978;28;20330;-77
2021/08/11 04:09:39;;;;;;;;;;;12.50;99.90;;;;;;5030984;28;19917;-77
2021/08/11 04:12:05;;;;;;;;;;;12.50;99.90;;;;;;5013987;28;20008;-79
2021/08/11 04:14:30;;;;;;;;;;;12.50;99.90;;;;;;5031887;28;19935;-77
2021/08/11 04:16:56;;;;;;;;;;;12.40;99.90;;;;;;5030927;28;20378;-77
2021/08/11 04:19:21;;;;;;;;;;;12.40;99.90;;;;;;5031154;28;19956;-79
2021/08/11 04:21:47;;;;;;;;;;;12.40;99.90;;;;;;5031091;28;19909;-77
2021/08/11 04:24:12;;;;;;;;;;;12.40;99.90;;;;;;5030750;28;19935;-77
2021/08/11 04:26:38;;;;;;;;;;;12.50;99.90;;;;;;5030990;28;19916;-77
2021/08/11 04:29:03;;;;;;;;;;;12.40;99.90;;;;;;5030239;28;19920;-77
2021/08/11 04:31:29;;;;;;;;;;;12.50;99.90;;;;;;5030743;28;20289;-77
2021/08/11 04:33:54;;;;;;;;;;;12.50;99.90;;;;;;5031092;28;19975;-77
2021/08/11 04:36:20;;;;;;;;;;;12.50;99.90;;;;;;5012932;28;19916;-77
2021/08/11 04:38:45;;;;;;;;;;;12.50;99.90;;;;;;5030799;28;19916;-77
2021/08/11 04:41:14;;;;;;;;;;;12.50;99.90;;;;;;5030858;28;20401;-77
2021/08/11 04:43:40;;;;;;;;;;;12.50;99.90;;;;;;5030917;28;20409;-77
2021/08/11 04:46:05;;;;;;;;;;;12.60;99.90;;;;;;5012766;28;19909;-77
2021/08/11 04:48:31;;;;;;;;;;;12.70;99.90;;;;;;5030996;28;20317;-77
2021/08/11 04:50:57;;;;;;;;;;;12.70;99.90;;;;;;5030766;28;20329;-77
2021/08/11 04:53:22;;;;;;;;;;;12.80;99.90;;;;;;5030390;28;19909;-77
2021/08/11 04:55:49;;;;;;;;;;;12.90;99.90;;;;;;5030738;28;19917;-77
2021/08/11 04:58:14;;;;;;;;;;;12.90;99.90;;;;;;5031433;28;19909;-79
2021/08/11 05:00:40;;;;;;;;;;;13.00;99.90;;;;;;5032048;28;20346;-79
2021/08/11 05:03:05;;;;;;;;;;;13.00;99.90;;;;;;5013462;28;20096;-77
2021/08/11 05:05:31;;;;;;;;;;;13.10;99.90;;;;;;5013010;28;20366;-77
2021/08/11 05:07:56;;;;;;;;;;;13.10;99.90;;;;;;5030074;28;19996;-77
2021/08/11 05:10:22;;;;;;;;;;;13.20;99.90;;;;;;5030525;28;19914;-77
2021/08/11 05:12:47;;;;;;;;;;;13.30;99.90;;;;;;5012865;28;19909;-79
2021/08/11 05:15:13;;;;;;;;;;;13.40;99.90;;;;;;5012970;28;19909;-77
2021/08/11 05:17:38;;;;;;;;;;;13.40;99.90;;;;;;5030396;28;19920;-77
2021/08/11 05:20:04;;;;;;;;;;;13.50;99.90;;;;;;5030558;28;19913;-77
2021/08/11 05:22:30;;;;;;;;;;;13.50;99.90;;;;;;5030239;28;19917;-77
2021/08/11 05:24:55;;;;;;;;;;;13.60;99.90;;;;;;5030513;28;19948;-77
2021/08/11 05:27:21;;;;;;;;;;;13.70;99.90;;;;;;5030198;28;19955;-77
2021/08/11 05:29:47;;;;;;;;;;;13.80;99.90;;;;;;5030627;28;20024;-77
2021/08/11 05:32:13;;;;;;;;;;;13.90;99.90;;;;;;5030571;28;19913;-77
2021/08/11 05:34:39;;;;;;;;;;;14.00;99.90;;;;;;5030707;28;20354;-77
2021/08/11 05:37:04;;;;;;;;;;;14.00;99.90;;;;;;5012279;28;19925;-77
2021/08/11 05:39:30;;;;;;;;;;;14.10;99.90;;;;;;5030623;28;20431;-77
2021/08/11 05:41:56;;;;;;;;;;;14.20;99.90;;;;;;5033356;28;19909;-77
2021/08/11 05:44:22;;;;;;;;;;;14.20;99.90;;;;;;5034118;28;19913;-77
2021/08/11 05:46:47;;;;;;;;;;;14.30;99.90;;;;;;5033686;28;19909;-77
2021/08/11 05:49:13;;;;;;;;;;;14.40;99.90;;;;;;5016169;28;19913;-77
2021/08/11 05:51:39;;;;;;;;;;;14.40;99.90;;;;;;5015823;28;19909;-77
2021/08/11 05:54:04;;;;;;;;;;;14.40;99.90;;;;;;5033943;28;20448;-77
2021/08/11 05:56:30;;;;;;;;;;;14.40;99.90;;;;;;5033382;28;20286;-77
2021/08/11 05:58:56;;;;;;;;;;;14.40;99.90;;;;;;5033694;28;20019;-77
2021/08/11 06:01:21;;;;;;;;;;;14.40;99.90;;;;;;5015900;28;19916;-77
2021/08/11 06:03:47;;;;;;;;;;;14.50;99.90;;;;;;5033763;28;19921;-77
2021/08/11 06:06:13;;;;;;;;;;;14.60;99.90;;;;;;5033061;28;20004;-77
2021/08/11 06:08:39;;;;;;;;;;;14.70;99.90;;;;;;5033587;28;19909;-77
2021/08/11 06:11:04;;;;;;;;;;;14.80;99.90;;;;;;5033704;28;19921;-77
2021/08/11 06:13:30;;;;;;;;;;;14.90;99.90;;;;;;5033557;28;19909;-77
2021/08/11 06:15:55;;;;;;;;;;;14.90;99.90;;;;;;5033577;28;19916;-77
2021/08/11 06:18:21;;;;;;;;;;;15.00;99.90;;;;;;5033260;28;19909;-77
2021/08/11 06:20:47;;;;;;;;;;;15.10;99.90;;;;;;5033183;28;19917;-77
2021/08/11 06:23:13;;;;;;;;;;;15.10;99.90;;;;;;5033096;28;19909;-77
2021/08/11 06:25:38;;;;;;;;;;;15.20;99.90;;;;;;5033286;28;19917;-77
2021/08/11 06:28:04;;;;;;;;;;;15.30;99.90;;;;;;5032941;28;20400;-77
2021/08/11 06:30:29;;;;;;;;;;;15.40;99.90;;;;;;5032922;28;19970;-77
2021/08/11 06:32:55;;;;;;;;;;;15.60;99.90;;;;;;5033211;28;20281;-77
2021/08/11 06:35:20;;;;;;;;;;;15.70;99.90;;;;;;5032862;28;19909;-77
2021/08/11 06:37:47;;;;;;;;;;;15.90;99.90;;;;;;5032967;28;19917;-77
2021/08/11 06:40:15;;;;;;;;;;;16.00;99.90;;;;;;5032345;28;20294;-77
2021/08/11 06:42:41;;;;;;;;;;;16.20;99.90;;;;;;5015319;28;19916;-77
2021/08/11 06:45:07;;;;;;;;;;;16.30;99.90;;;;;;5015381;28;19913;-77
2021/08/11 06:47:32;;;;;;;;;;;16.50;99.90;;;;;;5032477;28;20138;-78
2021/08/11 06:49:58;;;;;;;;;;;16.70;99.90;;;;;;5014885;28;20350;-77
2021/08/11 06:52:23;;;;;;;;;;;16.80;99.90;;;;;;5031864;28;19913;-78
2021/08/11 06:54:49;;;;;;;;;;;17.00;99.90;;;;;;5032692;28;20277;-77
2021/08/11 06:57:14;;;;;;;;;;;17.10;99.90;;;;;;5032385;28;19932;-78
2021/08/11 06:59:40;;;;;;;;;;;17.30;99.90;;;;;;5031617;28;19961;-78
2021/08/11 07:02:05;;;;;;;;;;;17.50;99.90;;;;;;5033036;28;19955;-78
2021/08/11 07:04:31;;;;;;;;;;;17.70;99.90;;;;;;5031136;28;19920;-78
2021/08/11 07:06:56;;;;;;;;;;;18.00;99.90;;;;;;5032370;28;19915;-78
2021/08/11 07:09:24;;;;;;;;;;;18.70;99.90;;;;;;5031802;28;19913;-78
2021/08/11 07:11:49;;;;;;;;;;;19.90;99.90;;;;;;5032998;28;19959;-78
2021/08/11 07:14:15;;;;;;;;;;;21.00;99.90;;;;;;5031997;28;19913;-78
2021/08/11 07:16:40;;;;;;;;;;;22.30;99.90;;;;;;5032633;28;19932;-78
2021/08/11 07:19:06;;;;;;;;;;;23.30;99.90;;;;;;5031243;28;19910;-78
2021/08/11 07:21:31;;;;;;;;;;;23.00;99.90;;;;;;5031427;28;20009;-78
2021/08/11 07:23:57;;;;;;;;;;;22.70;99.90;;;;;;5032605;28;20424;-78
2021/08/11 07:26:22;;;;;;;;;;;22.50;99.90;;;;;;5032205;28;20360;-78
2021/08/11 07:28:48;;;;;;;;;;;22.90;99.90;;;;;;5014111;28;19915;-78
2021/08/11 07:31:13;;;;;;;;;;;23.60;99.90;;;;;;5032575;28;19917;-78
2021/08/11 07:33:39;;;;;;;;;;;24.70;99.90;;;;;;5033336;28;19966;-78
2021/08/11 07:36:05;;;;;;;;;;;25.40;99.90;;;;;;5032669;28;19909;-78
2021/08/11 07:38:30;;;;;;;;;;;25.60;99.90;;;;;;5015528;28;19909;-78
2021/08/11 07:40:56;;;;;;;;;;;25.80;99.90;;;;;;5032604;28;20420;-78
2021/08/11 07:43:21;;;;;;;;;;;26.30;99.90;;;;;;5032757;28;19909;-78
2021/08/11 07:45:48;;;;;;;;;;;26.30;99.90;;;;;;5032725;28;19916;-79
2021/08/11 07:48:13;;;;;;;;;;;26.70;99.90;;;;;;5014486;28;20368;-79
2021/08/11 07:50:39;;;;;;;;;;;27.40;99.90;;;;;;5032676;28;19917;-79
2021/08/11 07:53:04;;;;;;;;;;;27.90;99.90;;;;;;5032528;28;19916;-79
2021/08/11 07:55:30;;;;;;;;;;;28.00;99.90;;;;;;5032986;28;19932;-78
2021/08/11 07:57:55;;;;;;;;;;;28.10;99.20;;;;;;5032198;28;19952;-79
2021/08/11 08:00:22;;;;;;;;;;;28.70;99.90;;;;;;5032213;28;20368;-79
2021/08/11 08:02:48;;;;;;;;;;;28.70;98.90;;;;;;5014927;28;19932;-79
2021/08/11 08:05:14;;;;;;;;;;;28.90;99.20;;;;;;5015066;28;20358;-79
2021/08/11 08:07:39;;;;;;;;;;;29.00;97.90;;;;;;5032183;28;20375;-77
2021/08/11 08:10:05;;;;;;;;;;;29.10;98.10;;;;;;5031474;28;20373;-77
2021/08/11 08:12:31;;;;;;;;;;;29.00;98.10;;;;;;5031728;28;20289;-78
2021/08/11 08:14:56;;;;;;;;;;;28.80;97.90;;;;;;5014075;28;19909;-77
2021/08/11 08:17:22;;;;;;;;;;;29.00;97.60;;;;;;5031093;28;19936;-78
2021/08/11 08:19:47;;;;;;;;;;;29.40;96.90;;;;;;5031584;28;19913;-77
2021/08/11 08:22:17;;;;;;;;;;;29.40;97.30;;;;;;5030791;28;20008;-78
2021/08/11 08:24:45;;;;;;;;;;;29.50;96.90;;;;;;5031345;28;19909;-77
2021/08/11 08:27:11;;;;;;;;;;;29.70;96.80;;;;;;5031360;28;19916;-77
2021/08/11 08:29:37;;;;;;;;;;;29.90;95.20;;;;;;5031575;28;20011;-77
2021/08/11 08:32:02;;;;;;;;;;;29.90;96.10;;;;;;5013009;28;19917;-77
2021/08/11 08:34:28;;;;;;;;;;;28.80;95.80;;;;;;5031086;28;19940;-77
2021/08/11 08:36:53;;;;;;;;;;;28.20;96.00;;;;;;5013307;28;20373;-78
2021/08/11 08:39:19;;;;;;;;;;;28.30;98.80;;;;;;5013877;28;19917;-78
2021/08/11 08:41:46;;;;;;;;;;;28.80;98.50;;;;;;5031218;28;19932;-77
2021/08/11 08:44:13;;;;;;;;;;;29.00;95.00;;;;;;5013531;28;19913;-77
2021/08/11 08:46:41;;;;;;;;;;;29.00;97.90;;;;;;5030590;28;19915;-77
2021/08/11 08:49:07;;;;;;;;;;;29.20;97.30;;;;;;5013797;28;19909;-77
2021/08/11 08:51:38;;;;;;;;;;;28.80;96.70;;;;;;5030850;28;19916;-77
2021/08/11 08:54:04;;;;;;;;;;;28.80;96.90;;;;;;5031255;28;20266;-79
2021/08/11 08:56:29;;;;;;;;;;;28.80;96.90;;;;;;5030917;28;19917;-78
2021/08/11 08:58:55;;;;;;;;;;;28.90;95.70;;;;;;5032342;28;20425;-78
2021/08/11 09:01:20;;;;;;;;;;;29.00;96.20;;;;;;5031681;28;20000;-78
2021/08/11 09:03:46;;;;;;;;;;;29.30;97.20;;;;;;5032528;28;19909;-78
2021/08/11 09:06:11;;;;;;;;;;;29.70;97.10;;;;;;5033246;28;19909;-78
2021/08/11 09:08:53;;;;;;;;;;;30.10;97.20;;;;;;5030100;28;20481;-77
2021/08/11 09:11:19;;;;;;;;;;;30.30;95.10;;;;;;5029244;28;19920;-78
2021/08/11 09:13:44;;;;;;;;;;;30.40;95.70;;;;;;5031744;28;19909;-78
2021/08/11 09:16:13;;;;;;;;;;;30.50;96.10;;;;;;5033019;28;20009;-78
2021/08/11 09:18:38;;;;;;;;;;;30.80;96.10;;;;;;5035586;28;19976;-78
2021/08/11 09:21:09;;;;;;;;;;;30.80;93.30;;;;;;5036489;28;19960;-78
2021/08/11 09:23:34;;;;;;;;;;;30.80;95.90;;;;;;5019762;28;19913;-77
2021/08/11 09:26:04;;;;;;;;;;;30.50;93.00;;;;;;5017826;28;19909;-77
2021/08/11 09:28:31;;;;;;;;;;;30.10;93.60;;;;;;5037472;28;20352;-78
2021/08/11 09:30:57;;;;;;;;;;;30.30;96.70;;;;;;5020400;28;20391;-78
2021/08/11 09:33:26;;;;;;;;;;;30.70;96.00;;;;;;5021188;28;19909;-78
2021/08/11 09:35:52;;;;;;;;;;;31.20;94.10;;;;;;5020608;28;19915;-78
2021/08/11 09:38:18;;;;;;;;;;;31.40;94.60;;;;;;5037999;28;19909;-78
2021/08/11 09:40:44;;;;;;;;;;;31.50;93.40;;;;;;5036932;28;19909;-78
2021/08/11 09:43:15;;;;;;;;;;;31.70;94.50;;;;;;5036701;28;20366;-78
2021/08/11 09:45:52;;;;;;;;;;;31.50;94.00;;;;;;5017523;28;19910;-77
2021/08/11 09:48:18;;;;;;;;;;;31.10;92.00;;;;;;5017225;28;19963;-78
2021/08/11 09:50:53;;;;;;;;;;;30.90;93.40;;;;;;5036266;28;19919;-78
2021/08/11 09:53:32;;;;;;;;;;;31.30;93.20;;;;;;5037647;28;19949;-79
2021/08/11 09:56:04;;;;;;;;;;;31.40;91.80;;;;;;5042188;28;19932;-79
2021/08/11 09:58:30;;;;;;;;;;;31.70;93.20;;;;;;5040042;28;19948;-79
2021/08/11 10:00:56;;;;;;;;;;;31.80;92.60;;;;;;5034343;28;19909;-79
2021/08/11 10:03:21;;;;;;;;;;;31.50;90.70;;;;;;5016694;28;19909;-79
2021/08/11 10:05:49;;;;;;;;;;;31.40;92.70;;;;;;5037542;28;20424;-79
2021/08/11 10:08:25;;;;;;;;;;;31.70;92.40;;;;;;5037180;28;19909;-79
2021/08/11 10:10:51;;;;;;;;;;;31.90;91.80;;;;;;5037231;28;19976;-79
2021/08/11 10:13:19;;;;;;;;;;;32.10;92.00;;;;;;5037837;28;20374;-79
2021/08/11 10:15:45;;;;;;;;;;;32.30;90.40;;;;;;5018956;28;19913;-79
2021/08/11 10:18:12;;;;;;;;;;;32.60;90.10;;;;;;5017400;28;19995;-79
2021/08/11 10:20:38;;;;;;;;;;;32.50;90.50;;;;;;5036262;28;19913;-79
2021/08/11 10:23:04;;;;;;;;;;;32.30;88.20;;;;;;5040544;28;19916;-79
2021/08/11 10:25:30;;;;;;;;;;;32.50;88.70;;;;;;5021756;28;20412;-79
2021/08/11 10:27:56;;;;;;;;;;;32.40;88.60;;;;;;5038152;28;19909;-79
2021/08/11 10:30:21;;;;;;;;;;;32.60;87.40;;;;;;5021087;28;19951;-79
2021/08/11 10:32:47;;;;;;;;;;;32.60;89.50;;;;;;5036604;28;19909;-79
2021/08/11 10:35:13;;;;;;;;;;;32.60;86.60;;;;;;5017479;28;19963;-79
2021/08/11 10:37:39;;;;;;;;;;;32.50;88.90;;;;;;5038836;28;19909;-79
2021/08/11 10:40:05;;;;;;;;;;;32.90;87.00;;;;;;5036465;28;20321;-79
2021/08/11 10:42:31;;;;;;;;;;;33.00;88.50;;;;;;5041212;28;19932;-79
2021/08/11 10:44:58;;;;;;;;;;;33.40;90.10;;;;;;5025312;28;19909;-80
2021/08/11 10:47:27;;;;;;;;;;;33.60;87.70;;;;;;5042715;28;19931;-80
2021/08/11 10:49:54;;;;;;;;;;;33.50;84.60;;;;;;5039619;28;19913;-79
2021/08/11 10:52:20;;;;;;;;;;;33.40;88.90;;;;;;5025383;28;19945;-79
2021/08/11 10:54:50;;;;;;;;;;;33.50;85.30;;;;;;5025067;28;19916;-80
2021/08/11 10:57:38;;;;;;;;;;;33.50;84.90;;;;;;5038193;28;20340;-79
2021/08/11 11:00:04;;;;;;;;;;;32.90;83.60;;;;;;5035575;28;19909;-79
2021/08/11 11:02:41;;;;;;;;;;;32.60;87.50;;;;;;5037823;28;19928;-79
2021/08/11 11:05:08;;;;;;;;;;;32.40;88.90;;;;;;5023751;28;19909;-80
2021/08/11 11:07:34;;;;;;;;;;;32.50;88.40;;;;;;5042221;28;19972;-80
2021/08/11 11:10:19;;;;;;;;;;;32.90;87.20;;;;;;5023829;28;19943;-79
2021/08/11 11:12:44;;;;;;;;;;;33.00;88.20;;;;;;5042236;28;19916;-79
2021/08/11 11:15:09;;;;;;;;;;;33.30;86.30;;;;;;5036794;28;19913;-79
2021/08/11 11:17:55;;;;;;;;;;;33.20;83.10;;;;;;5039810;28;20363;-80
2021/08/11 11:20:21;;;;;;;;;;;33.10;83.40;;;;;;5042109;28;19960;-80
2021/08/11 11:22:49;;;;;;;;;;;32.70;85.30;;;;;;5044630;28;19932;-80
2021/08/11 11:25:15;;;;;;;;;;;31.80;85.30;;;;;;5045413;28;20000;-80
2021/08/11 11:27:40;;;;;;;;;;;31.00;88.70;;;;;;5026072;28;19951;-80
2021/08/11 11:30:07;;;;;;;;;;;30.10;86.40;;;;;;5043939;28;19924;-79
2021/08/11 11:32:32;;;;;;;;;;;29.30;90.40;;;;;;5045151;28;19916;-79
2021/08/11 11:35:17;;;;;;;;;;;28.60;90.80;;;;;;5044136;28;19913;-79
2021/08/11 11:37:42;;;;;;;;;;;28.00;91.90;;;;;;5044749;28;19909;-80
2021/08/11 11:40:12;;;;;;;;;;;27.50;92.90;;;;;;5036288;28;19916;-78
2021/08/11 11:42:37;;;;;;;;;;;27.00;93.10;;;;;;5032773;28;20226;-77
2021/08/11 11:45:06;;;;;;;;;;;26.70;93.70;;;;;;5032772;28;19909;-78
2021/08/11 11:50:18;;;;;;;;;;;26.30;94.80;;;;;;5043684;28;19913;-80
2021/08/11 11:52:46;;;;;;;;;;;26.30;95.40;;;;;;5044687;28;19909;-79
2021/08/11 11:55:12;;;;;;;;;;;26.50;94.90;;;;;;5044967;28;19973;-80
2021/08/11 11:57:38;;;;;;;;;;;26.50;95.10;;;;;;5044427;28;19913;-80
2021/08/11 12:00:04;;;;;;;;;;;26.50;95.10;;;;;;5045091;28;20259;-80
2021/08/11 12:02:30;;;;;;;;;;;26.60;96.90;;;;;;5043899;28;19913;-80
2021/08/11 12:04:56;;;;;;;;;;;27.10;94.40;;;;;;5036941;28;20338;-78
2021/08/11 12:07:28;;;;;;;;;;;27.70;94.20;;;;;;5031416;28;19965;-78
2021/08/11 12:09:53;;;;;;;;;;;27.90;93.80;;;;;;5031555;28;19917;-78
2021/08/11 12:12:19;;;;;;;;;;;28.30;93.10;;;;;;5032017;28;20457;-77
2021/08/11 12:14:44;;;;;;;;;;;28.10;93.20;;;;;;5013853;28;19909;-78
2021/08/11 12:17:26;;;;;;;;;;;27.80;93.60;;;;;;5031673;28;19909;-78
2021/08/11 12:19:52;;;;;;;;;;;27.60;94.40;;;;;;5038956;28;19910;-79
2021/08/11 12:22:33;;;;;;;;;;;28.10;93.60;;;;;;5044170;28;19985;-80
2021/08/11 12:24:59;;;;;;;;;;;28.20;93.60;;;;;;5043794;28;19909;-80
2021/08/11 12:27:25;;;;;;;;;;;27.80;93.10;;;;;;5043542;28;20285;-79
2021/08/11 12:30:10;;;;;;;;;;;27.50;93.90;;;;;;5044209;28;19913;-79
2021/08/11 12:32:36;;;;;;;;;;;27.20;94.20;;;;;;5042797;28;19955;-79
2021/08/11 12:35:01;;;;;;;;;;;26.90;96.00;;;;;;5042566;28;20297;-80
2021/08/11 12:37:27;;;;;;;;;;;27.10;96.20;;;;;;5041838;28;19910;-80
2021/08/11 12:39:52;;;;;;;;;;;27.40;96.20;;;;;;5043065;28;19909;-80
2021/08/11 12:42:18;;;;;;;;;;;28.00;95.00;;;;;;5041638;28;20055;-80
2021/08/11 12:44:52;;;;;;;;;;;28.30;94.30;;;;;;5041152;28;19981;-80
2021/08/11 12:47:17;;;;;;;;;;;28.50;93.60;;;;;;5042753;28;19910;-80
2021/08/11 12:49:48;;;;;;;;;;;28.50;93.00;;;;;;5042779;28;19940;-80
2021/08/11 12:52:17;;;;;;;;;;;28.40;94.10;;;;;;5046203;28;19985;-80
2021/08/11 12:55:01;;;;;;;;;;;28.60;93.70;;;;;;5046387;28;20321;-80
2021/08/11 12:57:47;;;;;;;;;;;28.80;93.00;;;;;;5046383;28;19909;-80
2021/08/11 13:00:14;;;;;;;;;;;29.00;92.40;;;;;;5035205;28;19916;-80
2021/08/11 13:02:40;;;;;;;;;;;28.90;92.30;;;;;;5044606;28;19919;-79
2021/08/11 13:05:05;;;;;;;;;;;28.80;93.90;;;;;;5044120;28;19909;-80
2021/08/11 13:07:31;;;;;;;;;;;28.90;92.30;;;;;;5045220;28;20162;-80
2021/08/11 13:10:09;;;;;;;;;;;28.90;92.40;;;;;;5044076;28;19980;-80
2021/08/11 13:12:35;;;;;;;;;;;28.90;93.20;;;;;;5044584;28;20376;-80
2021/08/11 13:15:00;;;;;;;;;;;28.90;92.50;;;;;;5046244;28;19963;-80
2021/08/11 13:17:27;;;;;;;;;;;29.00;93.10;;;;;;5045527;28;19948;-80
2021/08/11 13:20:11;;;;;;;;;;;29.40;92.60;;;;;;5047212;28;19920;-79
2021/08/11 13:22:37;;;;;;;;;;;29.60;92.60;;;;;;5046613;28;20332;-80
2021/08/11 13:25:03;;;;;;;;;;;30.00;92.40;;;;;;5045698;28;19909;-80
2021/08/11 13:27:28;;;;;;;;;;;29.90;91.70;;;;;;5045510;28;19916;-79
2021/08/11 13:29:56;;;;;;;;;;;29.40;92.20;;;;;;5045515;28;19967;-80
2021/08/11 13:32:22;;;;;;;;;;;28.70;92.00;;;;;;5026531;28;19913;-79
2021/08/11 13:34:48;;;;;;;;;;;28.10;93.40;;;;;;5028287;28;19963;-79
2021/08/11 13:37:13;;;;;;;;;;;27.70;93.90;;;;;;5046041;28;19914;-80
2021/08/11 13:39:38;;;;;;;;;;;27.80;94.20;;;;;;5045600;28;20297;-80
2021/08/11 13:42:04;;;;;;;;;;;27.70;93.80;;;;;;5038943;28;19909;-78
2021/08/11 13:44:29;;;;;;;;;;;27.80;94.80;;;;;;5035258;28;20008;-78
2021/08/11 13:46:55;;;;;;;;;;;28.00;94.10;;;;;;5034131;28;20349;-78
2021/08/11 13:49:21;;;;;;;;;;;28.20;93.90;;;;;;5016464;28;19915;-78
2021/08/11 13:51:46;;;;;;;;;;;28.20;93.60;;;;;;5034015;28;20393;-78
2021/08/11 13:54:12;;;;;;;;;;;27.70;93.60;;;;;;5034157;28;19920;-78
2021/08/11 13:56:37;;;;;;;;;;;27.50;94.50;;;;;;5034176;28;20012;-78
2021/08/11 13:59:03;;;;;;;;;;;27.40;94.00;;;;;;5033947;28;19916;-78
2021/08/11 14:01:28;;;;;;;;;;;27.50;95.40;;;;;;5033624;28;19914;-78
2021/08/11 14:03:54;;;;;;;;;;;27.60;94.00;;;;;;5016232;28;19972;-78
2021/08/11 14:06:19;;;;;;;;;;;27.40;93.40;;;;;;5033615;28;20285;-78
2021/08/11 14:08:44;;;;;;;;;;;27.40;94.60;;;;;;5016118;28;20329;-78
2021/08/11 14:11:10;;;;;;;;;;;27.60;94.50;;;;;;5034187;28;19914;-78
2021/08/11 14:13:36;;;;;;;;;;;28.00;94.30;;;;;;5033720;28;19909;-78
2021/08/11 14:16:02;;;;;;;;;;;28.20;94.80;;;;;;5033538;28;19909;-79
2021/08/11 14:18:28;;;;;;;;;;;28.10;93.40;;;;;;5015833;28;19956;-78